Time,TemperatureF,DewpointF,PressureIn,WindDirection,WindDirectionDegrees,WindSpeedMPH,WindSpeedGustMPH,Humidity,HourlyPrecipIn,Conditions,Clouds,dailyrainin,SoftwareType,DateUTC
2013-05-25 00:01:00,80.2,74.2,30.05,South,180,2.3,2.3,82,0.00,CLR,SCT,0.00,WeatherDisplay:10.37,2013-05-25 04:01:00,
2013-05-25 00:02:00,80.2,74.2,30.05,NNE,22,2.2,2.2,82,0.00,CLR,SCT,0.00,WeatherDisplay:10.37,2013-05-25 04:02:00,
2013-05-25 00:05:00,80.2,74.2,30.05,SW,224,2.0,3.0,82,0.00,CLR,SCT,0.00,WeatherDisplay:10.37,2013-05-25 04:05:00,
2013-05-25 00:07:00,80.2,74.2,30.05,ESE,112,1.7,1.7,82,0.00,CLR,SCT,0.00,WeatherDisplay:10.37,2013-05-25 04:07:00,
2013-05-25 00:10:00,80.2,74.2,30.05,SSW,196,0.0,2.0,82,0.00,CLR,SCT,0.00,WeatherDisplay:10.37,2013-05-25 04:10:00,
2013-05-25 00:15:00,80.1,74.1,30.06,SW,225,2.0,5.0,82,0.00,CLR,SCT,0.00,WeatherDisplay:10.37,2013-05-25 04:15:00,
2013-05-25 00:20:00,80.1,74.1,30.06,West,279,3.0,7.0,82,0.00,CLR,SCT,0.00,WeatherDisplay:10.37,2013-05-25 04:20:00,
2013-05-25 00:25:00,80.1,74.5,30.06,WNW,290,3.0,7.0,83,0.00,CLR,SCT,0.00,WeatherDisplay:10.37,2013-05-25 04:25:00,
2013-05-25 00:30:00,79.9,74.6,30.07,SW,236,5.0,6.0,84,0.00,CLR,SCT,0.00,WeatherDisplay:10.37,2013-05-25 04:30:00,
2013-05-25 00:35:00,79.3,75.0,30.07,WSW,257,2.0,5.0,87,0.01,RA,SCT,0.03,WeatherDisplay:10.37,2013-05-25 04:35:00,
2013-05-25 00:40:00,78.5,74.3,30.07,WSW,258,0.0,4.0,87,0.01,RA,SCT,0.06,WeatherDisplay:10.37,2013-05-25 04:40:00,
2013-05-25 00:45:00,78.4,75.2,30.07,SSW,208,0.0,3.0,90,0.00,RA,SCT,0.08,WeatherDisplay:10.37,2013-05-25 04:45:00,
2013-05-25 00:50:00,78.2,74.7,30.06,SSW,210,0.0,1.0,89,0.00,RA,SCT,0.08,WeatherDisplay:10.37,2013-05-25 04:50:00,
2013-05-25 00:55:00,77.7,74.5,30.06,SSW,210,0.0,0.0,90,0.00,,SCT,0.08,WeatherDisplay:10.37,2013-05-25 04:55:00,
2013-05-25 01:00:00,77.7,74.9,30.06,SW,233,0.0,0.0,91,0.00,CLR,SCT,0.08,WeatherDisplay:10.37,2013-05-25 05:00:00,
2013-05-25 01:05:00,77.5,74.7,30.07,SSW,202,0.0,0.0,91,0.08,CLR,SCT,0.08,WeatherDisplay:10.37,2013-05-25 05:05:00,
2013-05-25 01:10:00,76.7,73.8,30.07,WSW,239,0.0,0.0,91,0.00,CLR,SCT,0.08,WeatherDisplay:10.37,2013-05-25 05:10:00,
2013-05-25 01:15:00,76.5,73.7,30.06,NW,315,0.0,0.0,91,0.08,RA,SCT,0.08,WeatherDisplay:10.37,2013-05-25 05:15:00,
2013-05-25 01:20:00,76.3,73.1,30.06,East,90,0.0,0.0,90,0.08,RA,SCT,0.08,WeatherDisplay:10.37,2013-05-25 05:20:00,
2013-05-25 01:26:00,76.1,73.0,30.06,SE,135,0.0,0.0,90,0.08,BKN,SCT,0.08,WeatherDisplay:10.37,2013-05-25 05:26:00,
2013-05-25 01:31:00,75.7,72.2,30.06,East,90,0.0,0.0,89,0.08,BKN,SCT,0.08,WeatherDisplay:10.37,2013-05-25 05:31:00,
2013-05-25 01:37:00,75.7,72.2,30.06,South,180,0.0,0.0,89,0.06,BKN,SCT,0.08,WeatherDisplay:10.37,2013-05-25 05:37:00,
2013-05-25 01:42:00,75.6,72.5,30.06,ESE,112,0.0,0.0,90,0.03,BKN,SCT,0.08,WeatherDisplay:10.37,2013-05-25 05:42:00,
2013-05-25 01:48:00,75.6,72.5,30.06,SE,135,0.0,0.0,90,0.00,BKN,SCT,0.08,WeatherDisplay:10.37,2013-05-25 05:48:00,
2013-05-25 01:53:00,75.4,72.3,30.06,South,180,0.0,0.0,90,0.00,BKN,SCT,0.08,WeatherDisplay:10.37,2013-05-25 05:53:00,
2013-05-25 01:59:00,75.0,71.9,30.06,SW,225,0.0,0.0,90,0.00,BKN,SCT,0.08,WeatherDisplay:10.37,2013-05-25 05:59:00,
2013-05-25 02:04:00,74.7,71.6,30.06,SSW,202,0.0,0.0,90,0.00,BKN,SCT,0.08,WeatherDisplay:10.37,2013-05-25 06:04:00,
2013-05-25 02:10:00,74.5,71.0,30.06,SSW,202,0.0,0.0,89,0.00,SCT,SCT,0.08,WeatherDisplay:10.37,2013-05-25 06:10:00,
2013-05-25 02:15:00,74.3,70.8,30.05,SSW,199,0.0,0.0,89,0.00,SCT,SCT,0.08,WeatherDisplay:10.37,2013-05-25 06:15:00,
2013-05-25 02:20:00,74.1,70.6,30.05,SSE,164,0.0,0.0,89,0.00,SCT,SCT,0.08,WeatherDisplay:10.37,2013-05-25 06:20:00,
2013-05-25 02:25:00,73.9,70.8,30.05,SSW,211,0.0,0.0,90,0.00,SCT,SCT,0.08,WeatherDisplay:10.37,2013-05-25 06:25:00,
2013-05-25 02:30:00,73.7,70.9,30.05,WNW,293,0.0,0.0,91,0.00,SCT,SCT,0.08,WeatherDisplay:10.37,2013-05-25 06:30:00,
2013-05-25 02:35:00,73.2,70.4,30.05,WNW,292,0.0,0.0,91,0.00,SCT,SCT,0.08,WeatherDisplay:10.37,2013-05-25 06:35:00,
2013-05-25 02:40:00,73.2,70.4,30.05,North,355,0.0,0.0,91,0.00,SCT,SCT,0.08,WeatherDisplay:10.37,2013-05-25 06:40:00,
2013-05-25 02:45:00,73.1,70.7,30.05,NE,51,0.0,0.0,92,0.00,SCT,SCT,0.08,WeatherDisplay:10.37,2013-05-25 06:45:00,
2013-05-25 02:50:00,73.0,71.2,30.05,NNE,13,0.0,0.0,94,0.00,SCT,SCT,0.08,WeatherDisplay:10.37,2013-05-25 06:50:00,
2013-05-25 02:55:00,72.9,71.1,30.05,NNE,14,0.0,0.0,94,0.00,SCT,SCT,0.08,WeatherDisplay:10.37,2013-05-25 06:55:00,
2013-05-25 03:00:00,72.7,70.9,30.05,NNE,19,0.0,0.0,94,0.00,SCT,SCT,0.08,WeatherDisplay:10.37,2013-05-25 07:00:00,
2013-05-25 03:05:00,72.7,71.2,30.05,North,6,0.0,0.0,95,0.00,SCT,SCT,0.08,WeatherDisplay:10.37,2013-05-25 07:05:00,
2013-05-25 03:10:00,72.5,71.0,30.05,NNE,12,0.0,0.0,95,0.00,BKN,SCT,0.08,WeatherDisplay:10.37,2013-05-25 07:10:00,
2013-05-25 03:15:00,72.5,71.0,30.05,North,350,0.0,0.0,95,0.00,BKN,SCT,0.08,WeatherDisplay:10.37,2013-05-25 07:15:00,
2013-05-25 03:20:00,72.3,70.8,30.05,NNW,347,0.0,0.0,95,0.00,BKN,SCT,0.08,WeatherDisplay:10.37,2013-05-25 07:20:00,
2013-05-25 03:25:00,72.3,70.8,30.04,NNE,22,0.0,0.0,95,0.00,BKN,SCT,0.08,WeatherDisplay:10.37,2013-05-25 07:25:00,
2013-05-25 03:30:00,72.1,70.6,30.04,SW,225,0.0,0.0,95,0.00,BKN,SCT,0.08,WeatherDisplay:10.37,2013-05-25 07:30:00,
2013-05-25 03:36:00,72.1,70.6,30.04,SW,225,0.0,0.0,95,0.00,BKN,SCT,0.08,WeatherDisplay:10.37,2013-05-25 07:36:00,
2013-05-25 03:41:00,72.0,70.5,30.05,SW,225,0.0,0.0,95,0.00,BKN,SCT,0.08,WeatherDisplay:10.37,2013-05-25 07:41:00,
2013-05-25 03:47:00,72.1,70.6,30.05,NNE,22,0.0,0.0,95,0.00,BKN,SCT,0.08,WeatherDisplay:10.37,2013-05-25 07:47:00,
2013-05-25 03:53:00,72.1,70.9,30.05,ESE,112,0.0,0.0,96,0.00,BKN,SCT,0.08,WeatherDisplay:10.37,2013-05-25 07:53:00,
2013-05-25 03:58:00,72.5,71.3,30.05,NNW,338,3.8,3.8,96,0.00,BKN,SCT,0.08,WeatherDisplay:10.37,2013-05-25 07:58:00,
2013-05-25 04:04:00,72.1,70.9,30.05,ENE,68,0.0,0.0,96,0.00,BKN,SCT,0.08,WeatherDisplay:10.37,2013-05-25 08:04:00,
2013-05-25 04:09:00,72.0,70.8,30.05,SSW,202,0.0,0.0,96,0.00,BKN,SCT,0.08,WeatherDisplay:10.37,2013-05-25 08:09:00,
2013-05-25 04:15:00,71.8,70.3,30.04,WNW,292,0.0,0.0,95,0.00,BKN,SCT,0.08,WeatherDisplay:10.37,2013-05-25 08:15:00,
2013-05-25 04:20:00,71.8,70.0,30.04,SW,235,0.0,0.0,94,0.00,BKN,SCT,0.08,WeatherDisplay:10.37,2013-05-25 08:20:00,
2013-05-25 04:25:00,71.6,69.8,30.05,NNE,17,0.0,0.0,94,0.00,BKN,SCT,0.08,WeatherDisplay:10.37,2013-05-25 08:25:00,
2013-05-25 04:30:00,71.2,68.4,30.05,North,357,0.0,0.0,91,0.00,BKN,SCT,0.08,WeatherDisplay:10.37,2013-05-25 08:30:00,
2013-05-25 04:35:00,71.1,68.3,30.05,NNW,341,0.0,0.0,91,0.00,BKN,SCT,0.08,WeatherDisplay:10.37,2013-05-25 08:35:00,
2013-05-25 04:40:00,71.2,68.8,30.05,North,1,0.0,0.0,92,0.00,BKN,SCT,0.08,WeatherDisplay:10.37,2013-05-25 08:40:00,
2013-05-25 04:45:00,71.2,68.8,30.05,NE,39,0.0,0.0,92,0.00,BKN,SCT,0.08,WeatherDisplay:10.37,2013-05-25 08:45:00,
2013-05-25 04:50:00,71.4,69.0,30.04,North,8,0.0,0.0,92,0.00,BKN,SCT,0.08,WeatherDisplay:10.37,2013-05-25 08:50:00,
2013-05-25 04:55:00,71.4,69.0,30.04,NNW,336,0.0,0.0,92,0.00,BKN,SCT,0.08,WeatherDisplay:10.37,2013-05-25 08:55:00,
2013-05-25 05:00:00,71.2,68.8,30.04,North,359,0.0,0.0,92,0.00,BKN,SCT,0.08,WeatherDisplay:10.37,2013-05-25 09:00:00,
2013-05-25 05:05:00,71.2,69.1,30.04,NE,45,0.0,0.0,93,0.00,BKN,SCT,0.08,WeatherDisplay:10.37,2013-05-25 09:05:00,
2013-05-25 05:10:00,71.4,69.6,30.04,NE,45,5.4,5.4,94,0.00,FEW,SCT,0.08,WeatherDisplay:10.37,2013-05-25 09:10:00,
2013-05-25 05:15:00,71.6,69.8,30.05,ENE,61,1.0,6.0,94,0.00,FEW,SCT,0.08,WeatherDisplay:10.37,2013-05-25 09:15:00,
2013-05-25 05:20:00,71.6,69.2,30.05,NE,49,0.0,0.0,92,0.00,FEW,SCT,0.08,WeatherDisplay:10.37,2013-05-25 09:20:00,
2013-05-25 05:25:00,71.6,69.2,30.05,East,89,0.0,0.0,92,0.00,FEW,SCT,0.08,WeatherDisplay:10.37,2013-05-25 09:25:00,
2013-05-25 05:30:00,71.6,69.2,30.05,North,9,0.0,4.0,92,0.00,FEW,SCT,0.08,WeatherDisplay:10.37,2013-05-25 09:30:00,
2013-05-25 05:35:00,73.0,70.2,30.05,NNE,30,3.0,8.0,91,0.00,FEW,SCT,0.08,WeatherDisplay:10.37,2013-05-25 09:35:00,
2013-05-25 05:40:00,74.1,71.6,30.05,NNE,21,3.0,7.0,92,0.00,FEW,SCT,0.08,WeatherDisplay:10.37,2013-05-25 09:40:00,
2013-05-25 05:45:00,74.3,71.8,30.05,East,90,5.4,5.4,92,0.00,FEW,SCT,0.08,WeatherDisplay:10.37,2013-05-25 09:45:00,
2013-05-25 05:50:00,74.8,71.7,30.05,North,360,6.9,6.9,90,0.00,FEW,SCT,0.08,WeatherDisplay:10.37,2013-05-25 09:50:00,
2013-05-25 05:56:00,75.0,71.9,30.05,NE,45,4.6,4.6,90,0.00,FEW,SCT,0.08,WeatherDisplay:10.37,2013-05-25 09:56:00,
2013-05-25 06:01:00,75.2,72.1,30.06,NNE,22,6.4,6.4,90,0.00,FEW,SCT,0.08,WeatherDisplay:10.37,2013-05-25 10:01:00,
2013-05-25 06:07:00,75.2,71.7,30.06,SE,135,3.5,3.5,89,0.00,SCT,,0.08,WeatherDisplay:10.37,2013-05-25 10:07:00,
2013-05-25 06:12:00,75.4,71.9,30.06,East,90,4.6,4.6,89,0.00,SCT,,0.08,WeatherDisplay:10.37,2013-05-25 10:12:00,
2013-05-25 06:18:00,75.2,71.1,30.06,ESE,112,6.9,6.9,87,0.00,SCT,,0.08,WeatherDisplay:10.37,2013-05-25 10:18:00,
2013-05-25 06:23:00,75.2,70.4,30.06,ESE,112,6.9,6.9,85,0.00,SCT,,0.08,WeatherDisplay:10.37,2013-05-25 10:23:00,
2013-05-25 06:29:00,75.4,70.6,30.07,SE,135,6.9,6.9,85,0.00,SCT,,0.08,WeatherDisplay:10.37,2013-05-25 10:29:00,
2013-05-25 06:34:00,75.6,71.5,30.07,ENE,68,8.1,8.1,87,0.00,SCT,,0.08,WeatherDisplay:10.37,2013-05-25 10:34:00,
2013-05-25 06:40:00,75.6,71.5,30.07,NNE,30,5.0,7.0,87,0.00,SCT,SCT,0.08,WeatherDisplay:10.37,2013-05-25 10:40:00,
2013-05-25 06:45:00,75.6,71.5,30.07,ENE,64,3.0,10.0,87,0.00,SCT,SCT,0.08,WeatherDisplay:10.37,2013-05-25 10:45:00,
2013-05-25 06:50:00,75.6,71.1,30.07,NNW,328,5.0,6.0,86,0.00,SCT,SCT,0.08,WeatherDisplay:10.37,2013-05-25 10:50:00,
2013-05-25 06:55:00,75.6,70.1,30.07,NE,40,3.0,7.0,83,0.00,SCT,SCT,0.08,WeatherDisplay:10.37,2013-05-25 10:55:00,
2013-05-25 07:00:00,76.1,69.5,30.07,North,11,3.0,7.0,80,0.00,SCT,SCT,0.08,WeatherDisplay:10.37,2013-05-25 11:00:00,
2013-05-25 07:05:00,76.3,68.6,30.08,East,90,6.9,6.9,77,0.00,SCT,,0.08,WeatherDisplay:10.37,2013-05-25 11:05:00,
2013-05-25 07:10:00,76.5,68.4,30.08,ENE,63,3.0,7.0,76,0.00,SCT,SCT,0.08,WeatherDisplay:10.37,2013-05-25 11:10:00,
2013-05-25 07:15:00,77.5,68.2,30.07,ESE,122,5.0,9.0,73,0.00,SCT,SCT,0.08,WeatherDisplay:10.37,2013-05-25 11:15:00,
2013-05-25 07:20:00,78.1,68.7,30.07,NE,47,5.0,7.0,73,0.00,SCT,SCT,0.08,WeatherDisplay:10.37,2013-05-25 11:20:00,
2013-05-25 07:25:00,78.6,68.8,30.07,NE,39,3.0,7.0,72,0.00,SCT,SCT,0.08,WeatherDisplay:10.37,2013-05-25 11:25:00,
2013-05-25 07:30:00,79.2,68.6,30.08,ENE,68,6.9,6.9,70,0.00,SCT,,0.08,WeatherDisplay:10.37,2013-05-25 11:30:00,
2013-05-25 07:35:00,79.7,69.0,30.08,NNE,22,6.9,6.9,70,0.00,SCT,,0.08,WeatherDisplay:10.37,2013-05-25 11:35:00,
2013-05-25 07:41:00,80.2,69.1,30.09,NE,45,4.6,4.6,69,0.00,SCT,,0.08,WeatherDisplay:10.37,2013-05-25 11:41:00,
2013-05-25 07:46:00,80.8,68.4,30.09,North,360,5.8,6.4,66,0.00,SCT,,0.08,WeatherDisplay:10.37,2013-05-25 11:46:00,
2013-05-25 07:52:00,81.1,68.2,30.09,SE,135,9.2,9.2,65,0.00,SCT,,0.08,WeatherDisplay:10.37,2013-05-25 11:52:00,
2013-05-25 07:57:00,81.5,68.6,30.09,ENE,68,10.4,10.4,65,0.00,SCT,,0.08,WeatherDisplay:10.37,2013-05-25 11:57:00,
2013-05-25 08:03:00,81.5,68.6,30.09,SSE,158,5.8,5.8,65,0.00,SCT,,0.08,WeatherDisplay:10.37,2013-05-25 12:03:00,
2013-05-25 08:08:00,82.4,68.5,30.09,NNE,22,8.1,8.1,63,0.00,SCT,,0.08,WeatherDisplay:10.37,2013-05-25 12:08:00,
2013-05-25 08:14:00,83.3,68.9,30.10,NNE,22,6.9,6.9,62,0.00,SCT,,0.08,WeatherDisplay:10.37,2013-05-25 12:14:00,
2013-05-25 08:19:00,82.9,68.1,30.10,SW,225,8.1,8.1,61,0.00,SCT,,0.08,WeatherDisplay:10.37,2013-05-25 12:19:00,
2013-05-25 08:25:00,83.0,68.2,30.10,ENE,64,6.0,12.0,61,0.00,SCT,SCT,0.08,WeatherDisplay:10.37,2013-05-25 12:25:00,
2013-05-25 08:30:00,83.5,68.6,30.10,ESE,102,6.0,9.0,61,0.00,SCT,SCT,0.08,WeatherDisplay:10.37,2013-05-25 12:30:00,
2013-05-25 08:35:00,84.0,68.6,30.10,ENE,72,5.0,9.0,60,0.00,SCT,SCT,0.08,WeatherDisplay:10.37,2013-05-25 12:35:00,
2013-05-25 08:40:00,84.3,68.9,30.11,NE,48,5.0,6.0,60,0.00,SCT,SCT,0.08,WeatherDisplay:10.37,2013-05-25 12:40:00,
2013-05-25 08:45:00,85.0,68.5,30.11,NE,48,5.0,7.0,58,0.00,SCT,SCT,0.08,WeatherDisplay:10.37,2013-05-25 12:45:00,
2013-05-25 08:50:00,84.8,66.8,30.11,NE,45,7.0,12.0,55,0.00,SCT,SCT,0.08,WeatherDisplay:10.37,2013-05-25 12:50:00,
2013-05-25 08:55:00,85.5,67.5,30.11,NE,45,7.5,7.5,55,0.00,SCT,,0.08,WeatherDisplay:10.37,2013-05-25 12:55:00,
2013-05-25 09:00:00,86.4,67.8,30.11,NE,45,5.8,5.8,54,0.00,SCT,,0.08,WeatherDisplay:10.37,2013-05-25 13:00:00,
2013-05-25 09:06:00,86.4,66.7,30.11,East,90,8.1,8.1,52,0.00,SCT,,0.08,WeatherDisplay:10.37,2013-05-25 13:06:00,
2013-05-25 09:11:00,86.7,67.5,30.11,NE,45,6.9,6.9,53,0.00,SCT,,0.08,WeatherDisplay:10.37,2013-05-25 13:11:00,
2013-05-25 09:17:00,87.1,67.3,30.12,NE,45,4.6,4.6,52,0.00,SCT,,0.08,WeatherDisplay:10.37,2013-05-25 13:17:00,
2013-05-25 09:22:00,86.7,67.0,30.12,South,180,9.2,9.2,52,0.00,SCT,,0.08,WeatherDisplay:10.37,2013-05-25 13:22:00,
2013-05-25 09:28:00,84.4,67.0,30.12,NNE,22,9.2,9.2,56,0.00,SCT,,0.08,WeatherDisplay:10.37,2013-05-25 13:28:00,
2013-05-25 09:33:00,84.0,66.6,30.12,East,90,9.2,9.2,56,0.00,SCT,,0.08,WeatherDisplay:10.37,2013-05-25 13:33:00,
2013-05-25 09:39:00,84.6,67.2,30.13,NNE,22,5.9,5.9,56,0.00,SCT,,0.08,WeatherDisplay:10.37,2013-05-25 13:39:00,
2013-05-25 09:44:00,84.6,67.2,30.13,East,90,8.1,8.1,56,0.00,SCT,,0.08,WeatherDisplay:10.37,2013-05-25 13:44:00,
2013-05-25 09:50:00,84.7,67.3,30.13,NE,43,5.0,7.0,56,0.00,SCT,SCT,0.08,WeatherDisplay:10.37,2013-05-25 13:50:00,
2013-05-25 09:55:00,84.9,66.9,30.13,North,360,6.9,6.9,55,0.00,SCT,,0.08,WeatherDisplay:10.37,2013-05-25 13:55:00,
2013-05-25 10:00:00,85.5,68.0,30.13,NE,49,5.0,8.0,56,0.00,SCT,SCT,0.08,WeatherDisplay:10.37,2013-05-25 14:00:00,
2013-05-25 10:05:00,85.4,68.0,30.13,East,86,7.0,9.0,56,0.00,SCT,SCT,0.08,WeatherDisplay:10.37,2013-05-25 14:05:00,
2013-05-25 10:10:00,85.0,67.6,30.13,NNE,23,5.0,6.0,56,0.00,FEW,SCT,0.08,WeatherDisplay:10.37,2013-05-25 14:10:00,
2013-05-25 10:15:00,85.3,67.8,30.14,NNE,23,7.0,10.0,56,0.00,FEW,SCT,0.08,WeatherDisplay:10.37,2013-05-25 14:15:00,
2013-05-25 10:20:00,85.6,68.1,30.14,NE,36,9.0,11.0,56,0.00,FEW,SCT,0.08,WeatherDisplay:10.37,2013-05-25 14:20:00,
2013-05-25 10:25:00,85.4,67.9,30.14,NNE,32,7.0,12.0,56,0.00,FEW,SCT,0.08,WeatherDisplay:10.37,2013-05-25 14:25:00,
2013-05-25 10:30:00,85.2,67.8,30.15,NE,42,5.0,12.0,56,0.00,FEW,SCT,0.08,WeatherDisplay:10.37,2013-05-25 14:30:00,
2013-05-25 10:35:00,85.4,69.0,30.15,NNE,16,6.0,12.0,58,0.00,FEW,SCT,0.08,WeatherDisplay:10.37,2013-05-25 14:35:00,
2013-05-25 10:40:00,85.5,68.5,30.15,NNE,22,7.0,9.0,57,0.00,FEW,SCT,0.08,WeatherDisplay:10.37,2013-05-25 14:40:00,
2013-05-25 10:45:00,85.7,68.7,30.15,South,189,7.0,8.0,57,0.00,FEW,SCT,0.08,WeatherDisplay:10.37,2013-05-25 14:45:00,
2013-05-25 10:50:00,85.8,68.3,30.15,ESE,120,5.0,11.0,56,0.00,FEW,SCT,0.08,WeatherDisplay:10.37,2013-05-25 14:50:00,
2013-05-25 10:55:00,85.6,68.6,30.15,NE,35,5.0,11.0,57,0.00,FEW,SCT,0.08,WeatherDisplay:10.37,2013-05-25 14:55:00,
2013-05-25 11:00:00,86.0,68.5,30.15,NNE,32,8.0,13.0,56,0.00,FEW,SCT,0.08,WeatherDisplay:10.37,2013-05-25 15:00:00,
2013-05-25 11:05:00,86.2,68.7,30.15,NE,41,7.0,9.0,56,0.00,FEW,SCT,0.08,WeatherDisplay:10.37,2013-05-25 15:05:00,
2013-05-25 11:10:00,85.9,68.4,30.15,NE,36,6.0,13.0,56,0.00,SCT,SCT,0.08,WeatherDisplay:10.37,2013-05-25 15:10:00,
2013-05-25 11:15:00,85.8,68.3,30.15,NE,42,7.0,13.0,56,0.00,SCT,SCT,0.08,WeatherDisplay:10.37,2013-05-25 15:15:00,
2013-05-25 11:20:00,86.4,68.3,30.15,ENE,62,6.0,11.0,55,0.00,SCT,SCT,0.08,WeatherDisplay:10.37,2013-05-25 15:20:00,
2013-05-25 11:25:00,86.4,68.3,30.15,NE,54,7.0,11.0,55,0.00,SCT,SCT,0.08,WeatherDisplay:10.37,2013-05-25 15:25:00,
2013-05-25 11:30:00,87.4,68.7,30.16,NE,49,7.0,12.0,54,0.00,SCT,SCT,0.08,WeatherDisplay:10.37,2013-05-25 15:30:00,
2013-05-25 11:35:00,86.8,68.2,30.16,NE,47,7.0,14.0,54,0.00,SCT,SCT,0.08,WeatherDisplay:10.37,2013-05-25 15:35:00,
2013-05-25 11:40:00,87.0,68.3,30.16,NNE,22,7.0,11.0,54,0.00,SCT,SCT,0.08,WeatherDisplay:10.37,2013-05-25 15:40:00,
2013-05-25 11:45:00,87.3,68.1,30.16,NE,37,6.0,8.0,53,0.00,SCT,SCT,0.08,WeatherDisplay:10.37,2013-05-25 15:45:00,
2013-05-25 11:50:00,86.0,67.4,30.16,ENE,68,11.5,11.5,54,0.00,SCT,,0.08,WeatherDisplay:10.37,2013-05-25 15:50:00,
2013-05-25 11:55:00,86.4,67.8,30.16,East,79,7.0,10.0,54,0.00,SCT,SCT,0.08,WeatherDisplay:10.37,2013-05-25 15:55:00,
2013-05-25 12:00:00,86.6,67.4,30.16,NE,48,6.0,9.0,53,0.00,SCT,SCT,0.08,WeatherDisplay:10.37,2013-05-25 16:00:00,
2013-05-25 12:05:00,86.7,68.6,30.16,East,82,3.0,9.0,55,0.00,SCT,SCT,0.08,WeatherDisplay:10.37,2013-05-25 16:05:00,
2013-05-25 12:10:00,87.0,68.9,30.16,ENE,78,6.0,9.0,55,0.00,SCT,SCT,0.08,WeatherDisplay:10.37,2013-05-25 16:10:00,
2013-05-25 12:15:00,87.5,68.3,30.16,NE,34,7.0,9.0,53,0.00,SCT,SCT,0.08,WeatherDisplay:10.37,2013-05-25 16:15:00,
2013-05-25 12:20:00,87.4,68.2,30.16,NE,51,6.0,10.0,53,0.00,SCT,SCT,0.08,WeatherDisplay:10.37,2013-05-25 16:20:00,
2013-05-25 12:25:00,87.8,68.5,30.16,NE,45,7.0,10.0,53,0.00,SCT,SCT,0.08,WeatherDisplay:10.37,2013-05-25 16:25:00,
2013-05-25 12:30:00,87.6,68.9,30.16,NE,52,5.0,11.0,54,0.00,SCT,SCT,0.08,WeatherDisplay:10.37,2013-05-25 16:30:00,
2013-05-25 12:35:00,88.8,69.5,30.16,NE,55,7.0,10.0,53,0.00,SCT,SCT,0.08,WeatherDisplay:10.37,2013-05-25 16:35:00,
2013-05-25 12:40:00,87.6,68.9,30.16,ENE,64,3.0,8.0,54,0.00,SCT,SCT,0.08,WeatherDisplay:10.37,2013-05-25 16:40:00,
2013-05-25 12:45:00,88.7,69.3,30.16,ENE,67,6.0,12.0,53,0.00,SCT,SCT,0.08,WeatherDisplay:10.37,2013-05-25 16:45:00,
2013-05-25 12:50:00,88.3,68.4,30.16,ENE,69,5.0,10.0,52,0.00,SCT,SCT,0.08,WeatherDisplay:10.37,2013-05-25 16:50:00,
2013-05-25 12:55:00,88.4,69.6,30.16,East,93,7.0,10.0,54,0.00,SCT,SCT,0.08,WeatherDisplay:10.37,2013-05-25 16:55:00,
2013-05-25 13:00:00,88.6,69.3,30.16,ESE,109,5.0,9.0,53,0.00,SCT,SCT,0.08,WeatherDisplay:10.37,2013-05-25 17:00:00,
2013-05-25 13:05:00,87.7,68.5,30.16,ENE,66,6.0,14.0,53,0.00,SCT,SCT,0.08,WeatherDisplay:10.37,2013-05-25 17:05:00,
2013-05-25 13:10:00,87.0,68.9,30.16,NE,49,7.0,12.0,55,0.00,SCT,SCT,0.08,WeatherDisplay:10.37,2013-05-25 17:10:00,
2013-05-25 13:15:00,87.7,68.5,30.16,ENE,57,8.0,13.0,53,0.00,SCT,SCT,0.08,WeatherDisplay:10.37,2013-05-25 17:15:00,
2013-05-25 13:20:00,87.8,68.0,30.16,NE,48,8.0,12.0,52,0.00,SCT,SCT,0.08,WeatherDisplay:10.37,2013-05-25 17:20:00,
2013-05-25 13:25:00,88.3,69.6,30.16,NNE,25,5.0,11.0,54,0.00,SCT,SCT,0.08,WeatherDisplay:10.37,2013-05-25 17:25:00,
2013-05-25 13:30:00,88.3,69.5,30.16,NE,37,3.0,10.0,54,0.00,SCT,SCT,0.08,WeatherDisplay:10.37,2013-05-25 17:30:00,
2013-05-25 13:35:00,88.1,69.4,30.16,ENE,78,5.0,10.0,54,0.00,SCT,SCT,0.08,WeatherDisplay:10.37,2013-05-25 17:35:00,
2013-05-25 13:40:00,88.7,69.4,30.16,ENE,59,6.0,11.0,53,0.00,SCT,SCT,0.08,WeatherDisplay:10.37,2013-05-25 17:40:00,
2013-05-25 13:45:00,88.4,69.1,30.16,NE,54,6.0,11.0,53,0.00,SCT,SCT,0.08,WeatherDisplay:10.37,2013-05-25 17:45:00,
2013-05-25 13:50:00,89.1,70.3,30.16,NE,41,5.0,9.0,54,0.00,SCT,SCT,0.08,WeatherDisplay:10.37,2013-05-25 17:50:00,
2013-05-25 13:55:00,87.8,69.1,30.16,ESE,106,6.0,11.0,54,0.00,SCT,SCT,0.08,WeatherDisplay:10.37,2013-05-25 17:55:00,
2013-05-25 14:00:00,87.8,69.1,30.16,ESE,120,6.0,6.0,54,0.00,SCT,SCT,0.08,WeatherDisplay:10.37,2013-05-25 18:00:00,
2013-05-25 14:05:00,87.7,69.5,30.15,ENE,62,8.0,12.0,55,0.00,SCT,SCT,0.08,WeatherDisplay:10.37,2013-05-25 18:05:00,
2013-05-25 14:10:00,88.5,69.7,30.15,NE,45,7.0,13.0,54,0.00,SCT,SCT,0.08,WeatherDisplay:10.37,2013-05-25 18:10:00,
2013-05-25 14:15:00,88.0,69.8,30.14,NE,49,6.0,12.0,55,0.00,SCT,SCT,0.08,WeatherDisplay:10.37,2013-05-25 18:15:00,
2013-05-25 14:20:00,88.0,69.3,30.14,ENE,68,8.1,8.1,54,0.00,SCT,,0.08,WeatherDisplay:10.37,2013-05-25 18:20:00,
2013-05-25 14:25:00,87.8,69.1,30.14,NNE,22,10.4,10.4,54,0.00,SCT,,0.08,WeatherDisplay:10.37,2013-05-25 18:25:00,
2013-05-25 14:31:00,88.0,68.7,30.14,NE,45,8.5,8.5,53,0.00,SCT,,0.08,WeatherDisplay:10.37,2013-05-25 18:31:00,
2013-05-25 14:36:00,88.2,68.9,30.14,North,360,6.9,6.9,53,0.00,SCT,,0.08,WeatherDisplay:10.37,2013-05-25 18:36:00,
2013-05-25 14:42:00,88.0,68.7,30.14,ESE,112,8.1,8.1,53,0.00,SCT,,0.08,WeatherDisplay:10.37,2013-05-25 18:42:00,
2013-05-25 14:47:00,88.0,69.3,30.14,NE,45,6.4,6.4,54,0.00,SCT,,0.08,WeatherDisplay:10.37,2013-05-25 18:47:00,
2013-05-25 14:53:00,88.0,69.3,30.14,NE,45,6.9,6.9,54,0.00,SCT,,0.08,WeatherDisplay:10.37,2013-05-25 18:53:00,
2013-05-25 14:58:00,88.2,68.9,30.14,NNE,22,6.9,6.9,53,0.00,SCT,,0.08,WeatherDisplay:10.37,2013-05-25 18:58:00,
2013-05-25 15:04:00,88.3,67.3,30.14,NW,315,6.9,6.9,50,0.00,SCT,,0.08,WeatherDisplay:10.37,2013-05-25 19:04:00,
2013-05-25 15:09:00,88.2,67.2,30.14,West,270,7.5,7.5,50,0.00,SCT,,0.08,WeatherDisplay:10.37,2013-05-25 19:09:00,
2013-05-25 15:15:00,87.8,66.8,30.14,NE,36,7.0,11.0,50,0.00,SCT,SCT,0.08,WeatherDisplay:10.37,2013-05-25 19:15:00,
2013-05-25 15:20:00,88.2,66.7,30.14,NNE,14,5.0,10.0,49,0.00,SCT,SCT,0.08,WeatherDisplay:10.37,2013-05-25 19:20:00,
2013-05-25 15:25:00,88.3,66.1,30.14,NNE,30,7.0,12.0,48,0.00,SCT,SCT,0.08,WeatherDisplay:10.37,2013-05-25 19:25:00,
2013-05-25 15:30:00,88.3,65.5,30.13,ENE,66,8.0,10.0,47,0.00,SCT,SCT,0.08,WeatherDisplay:10.37,2013-05-25 19:30:00,
2013-05-25 15:35:00,88.5,66.3,30.13,NNE,22,10.6,10.6,48,0.00,SCT,,0.08,WeatherDisplay:10.37,2013-05-25 19:35:00,
2013-05-25 15:40:00,87.5,66.0,30.13,North,5,8.0,11.0,49,0.00,SCT,SCT,0.08,WeatherDisplay:10.37,2013-05-25 19:40:00,
2013-05-25 15:45:00,87.9,68.1,30.13,NNE,27,6.0,8.0,52,0.00,SCT,SCT,0.08,WeatherDisplay:10.37,2013-05-25 19:45:00,
2013-05-25 15:50:00,87.8,66.8,30.13,ENE,71,6.0,12.0,50,0.00,SCT,SCT,0.08,WeatherDisplay:10.37,2013-05-25 19:50:00,
2013-05-25 15:55:00,87.9,68.1,30.13,East,100,7.0,10.0,52,0.00,SCT,SCT,0.08,WeatherDisplay:10.37,2013-05-25 19:55:00,
2013-05-25 16:00:00,87.4,67.1,30.13,ENE,68,8.0,10.0,51,0.00,SCT,SCT,0.08,WeatherDisplay:10.37,2013-05-25 20:00:00,
2013-05-25 16:05:00,87.4,67.6,30.13,ENE,69,6.0,9.0,52,0.00,SCT,SCT,0.08,WeatherDisplay:10.37,2013-05-25 20:05:00,
2013-05-25 16:10:00,87.3,67.5,30.13,East,82,6.0,10.0,52,0.00,SCT,SCT,0.08,WeatherDisplay:10.37,2013-05-25 20:10:00,
2013-05-25 16:15:00,87.2,66.3,30.13,NE,52,7.0,10.0,50,0.00,SCT,SCT,0.08,WeatherDisplay:10.37,2013-05-25 20:15:00,
2013-05-25 16:20:00,87.3,65.2,30.13,ENE,62,7.0,12.0,48,0.00,SCT,SCT,0.08,WeatherDisplay:10.37,2013-05-25 20:20:00,
2013-05-25 16:25:00,86.7,65.9,30.13,NE,51,6.0,10.0,50,0.00,SCT,SCT,0.08,WeatherDisplay:10.37,2013-05-25 20:25:00,
2013-05-25 16:30:00,87.0,66.1,30.12,NE,44,8.0,12.0,50,0.00,SCT,SCT,0.08,WeatherDisplay:10.37,2013-05-25 20:30:00,
2013-05-25 16:35:00,86.7,67.0,30.12,SSW,202,6.9,6.9,52,0.00,SCT,,0.08,WeatherDisplay:10.37,2013-05-25 20:35:00,
2013-05-25 16:40:00,87.4,67.6,30.12,North,7,6.0,7.0,52,0.00,SCT,SCT,0.08,WeatherDisplay:10.37,2013-05-25 20:40:00,
2013-05-25 16:45:00,86.7,66.4,30.12,North,1,5.0,10.0,51,0.00,SCT,SCT,0.08,WeatherDisplay:10.37,2013-05-25 20:45:00,
2013-05-25 16:50:00,87.5,67.2,30.12,NNE,25,5.0,10.0,51,0.00,SCT,SCT,0.08,WeatherDisplay:10.37,2013-05-25 20:50:00,
2013-05-25 16:55:00,87.4,65.9,30.12,ENE,64,7.0,12.0,49,0.00,SCT,SCT,0.08,WeatherDisplay:10.37,2013-05-25 20:55:00,
2013-05-25 17:00:00,87.7,66.8,30.12,NNE,29,5.0,10.0,50,0.00,SCT,SCT,0.08,WeatherDisplay:10.37,2013-05-25 21:00:00,
2013-05-25 17:05:00,86.6,65.8,30.12,NNE,26,7.0,13.0,50,0.00,SCT,SCT,0.08,WeatherDisplay:10.37,2013-05-25 21:05:00,
2013-05-25 17:10:00,88.1,65.9,30.12,NE,37,6.0,8.0,48,0.00,BKN,SCT,0.08,WeatherDisplay:10.37,2013-05-25 21:10:00,
2013-05-25 17:15:00,88.5,66.3,30.12,NE,45,9.2,9.2,48,0.00,BKN,SCT,0.08,WeatherDisplay:10.37,2013-05-25 21:15:00,
2013-05-25 17:20:00,87.6,66.7,30.12,South,180,6.9,6.9,50,0.00,BKN,SCT,0.08,WeatherDisplay:10.37,2013-05-25 21:20:00,
2013-05-25 17:26:00,87.3,66.4,30.11,NNE,22,10.4,10.4,50,0.00,BKN,SCT,0.08,WeatherDisplay:10.37,2013-05-25 21:26:00,
2013-05-25 17:31:00,87.6,67.2,30.11,ESE,112,9.2,9.2,51,0.00,BKN,SCT,0.08,WeatherDisplay:10.37,2013-05-25 21:31:00,
2013-05-25 17:37:00,87.6,68.4,30.11,NE,45,5.8,5.8,53,0.00,BKN,SCT,0.08,WeatherDisplay:10.37,2013-05-25 21:37:00,
2013-05-25 17:42:00,85.6,68.1,30.11,NNE,22,6.9,6.9,56,0.00,BKN,SCT,0.08,WeatherDisplay:10.37,2013-05-25 21:42:00,
2013-05-25 17:48:00,85.6,68.1,30.11,East,90,6.9,6.9,56,0.00,BKN,SCT,0.08,WeatherDisplay:10.37,2013-05-25 21:48:00,
2013-05-25 17:53:00,84.6,69.2,30.11,ESE,112,8.1,8.1,60,0.00,BKN,SCT,0.08,WeatherDisplay:10.37,2013-05-25 21:53:00,
2013-05-25 17:59:00,83.7,68.8,30.11,NE,45,8.1,8.1,61,0.00,BKN,SCT,0.08,WeatherDisplay:10.37,2013-05-25 21:59:00,
2013-05-25 18:04:00,83.5,68.6,30.11,East,90,6.9,6.9,61,0.00,BKN,SCT,0.08,WeatherDisplay:10.37,2013-05-25 22:04:00,
2013-05-25 18:10:00,82.8,67.5,30.11,NE,45,7.0,10.0,60,0.00,BKN,SCT,0.08,WeatherDisplay:10.37,2013-05-25 22:10:00,
2013-05-25 18:15:00,83.3,68.0,30.11,North,360,6.9,6.9,60,0.00,BKN,SCT,0.08,WeatherDisplay:10.37,2013-05-25 22:15:00,
2013-05-25 18:20:00,83.8,67.9,30.11,East,90,11.5,11.5,59,0.00,BKN,SCT,0.08,WeatherDisplay:10.37,2013-05-25 22:20:00,
2013-05-25 18:26:00,83.7,68.3,30.11,ESE,112,9.2,9.2,60,0.00,BKN,SCT,0.08,WeatherDisplay:10.37,2013-05-25 22:26:00,
2013-05-25 18:31:00,83.8,68.4,30.11,ENE,68,10.6,10.6,60,0.00,BKN,SCT,0.08,WeatherDisplay:10.37,2013-05-25 22:31:00,
2013-05-25 18:37:00,83.7,67.8,30.11,ENE,68,6.9,6.9,59,0.00,BKN,SCT,0.08,WeatherDisplay:10.37,2013-05-25 22:37:00,
2013-05-25 18:42:00,82.0,67.7,30.11,SE,135,9.2,9.2,62,0.00,BKN,SCT,0.08,WeatherDisplay:10.37,2013-05-25 22:42:00,
2013-05-25 18:48:00,81.9,68.1,30.11,WNW,292,9.2,9.2,63,0.00,BKN,SCT,0.08,WeatherDisplay:10.37,2013-05-25 22:48:00,
2013-05-25 18:53:00,82.8,68.0,30.11,NE,45,6.9,6.9,61,0.00,BKN,SCT,0.08,WeatherDisplay:10.37,2013-05-25 22:53:00,
2013-05-25 18:59:00,81.9,67.1,30.11,ENE,68,12.7,12.7,61,0.00,BKN,SCT,0.08,WeatherDisplay:10.37,2013-05-25 22:59:00,
2013-05-25 19:04:00,81.7,66.5,30.12,NE,45,5.8,5.8,60,0.00,BKN,SCT,0.08,WeatherDisplay:10.37,2013-05-25 23:04:00,
2013-05-25 19:10:00,81.7,67.9,30.12,NE,48,5.0,8.0,63,0.00,BKN,SCT,0.08,WeatherDisplay:10.37,2013-05-25 23:10:00,
2013-05-25 19:15:00,81.5,67.7,30.11,ENE,69,8.0,12.0,63,0.00,BKN,SCT,0.08,WeatherDisplay:10.37,2013-05-25 23:15:00,
2013-05-25 19:20:00,81.1,67.8,30.11,ENE,75,5.0,12.0,64,0.00,BKN,SCT,0.08,WeatherDisplay:10.37,2013-05-25 23:20:00,
2013-05-25 19:25:00,80.8,67.5,30.11,East,90,5.8,5.8,64,0.00,BKN,SCT,0.08,WeatherDisplay:10.37,2013-05-25 23:25:00,
2013-05-25 19:30:00,80.5,67.2,30.11,NE,40,6.0,11.0,64,0.00,BKN,SCT,0.08,WeatherDisplay:10.37,2013-05-25 23:30:00,
2013-05-25 19:35:00,79.9,67.1,30.11,NNE,22,10.1,10.1,65,0.00,BKN,SCT,0.08,WeatherDisplay:10.37,2013-05-25 23:35:00,
2013-05-25 19:40:00,79.7,67.8,30.12,ENE,68,8.1,8.1,67,0.00,BKN,SCT,0.08,WeatherDisplay:10.37,2013-05-25 23:40:00,
2013-05-25 19:46:00,79.5,67.6,30.12,ESE,112,9.2,9.2,67,0.00,BKN,SCT,0.08,WeatherDisplay:10.37,2013-05-25 23:46:00,
2013-05-25 19:51:00,79.3,67.4,30.11,South,180,5.8,5.8,67,0.00,BKN,SCT,0.08,WeatherDisplay:10.37,2013-05-25 23:51:00,
2013-05-25 19:57:00,79.0,67.5,30.11,SE,135,10.4,10.4,68,0.00,BKN,SCT,0.08,WeatherDisplay:10.37,2013-05-25 23:57:00,
2013-05-25 20:02:00,78.8,67.8,30.12,NE,45,9.2,9.2,69,0.00,BKN,SCT,0.08,WeatherDisplay:10.37,2013-05-26 00:02:00,
2013-05-25 20:08:00,78.4,67.8,30.12,ENE,68,8.1,8.1,70,0.00,BKN,SCT,0.08,WeatherDisplay:10.37,2013-05-26 00:08:00,
2013-05-25 20:13:00,78.3,67.3,30.12,North,360,8.1,8.1,69,0.00,BKN,SCT,0.08,WeatherDisplay:10.37,2013-05-26 00:13:00,
2013-05-25 20:19:00,78.3,67.3,30.12,North,360,8.1,8.1,69,0.00,BKN,SCT,0.08,WeatherDisplay:10.37,2013-05-26 00:19:00,
2013-05-25 20:24:00,78.3,66.9,30.12,ESE,112,8.1,8.1,68,0.00,BKN,SCT,0.08,WeatherDisplay:10.37,2013-05-26 00:24:00,
2013-05-25 20:30:00,78.3,66.9,30.12,NNE,32,7.0,10.0,68,0.00,BKN,SCT,0.08,WeatherDisplay:10.37,2013-05-26 00:30:00,
2013-05-25 20:35:00,78.3,66.9,30.12,NNE,13,5.0,9.0,68,0.00,BKN,SCT,0.08,WeatherDisplay:10.37,2013-05-26 00:35:00,
2013-05-25 20:40:00,77.9,66.5,30.12,NE,37,5.0,7.0,68,0.00,BKN,SCT,0.08,WeatherDisplay:10.37,2013-05-26 00:40:00,
2013-05-25 20:45:00,77.7,66.3,30.12,NE,47,7.0,9.0,68,0.00,BKN,SCT,0.08,WeatherDisplay:10.37,2013-05-26 00:45:00,
2013-05-25 20:50:00,77.7,66.3,30.13,NE,47,6.0,11.0,68,0.00,BKN,SCT,0.08,WeatherDisplay:10.37,2013-05-26 00:50:00,
2013-05-25 20:55:00,77.7,67.1,30.13,NE,48,6.0,10.0,70,0.00,BKN,SCT,0.08,WeatherDisplay:10.37,2013-05-26 00:55:00,
2013-05-25 21:00:00,77.7,67.1,30.13,East,90,10.4,10.4,70,0.00,BKN,SCT,0.08,WeatherDisplay:10.37,2013-05-26 01:00:00,
2013-05-25 21:05:00,77.7,67.1,30.13,NE,45,8.1,8.1,70,0.00,SCT,,0.08,WeatherDisplay:10.37,2013-05-26 01:05:00,
2013-05-25 21:10:00,77.7,67.1,30.13,NNE,22,6.9,6.9,70,0.00,SCT,,0.08,WeatherDisplay:10.37,2013-05-26 01:10:00,
2013-05-25 21:16:00,77.5,66.5,30.14,WSW,248,5.9,5.9,69,0.00,SCT,,0.08,WeatherDisplay:10.37,2013-05-26 01:16:00,
2013-05-25 21:21:00,77.4,66.4,30.14,East,90,5.8,5.8,69,0.00,SCT,,0.08,WeatherDisplay:10.37,2013-05-26 01:21:00,
2013-05-25 21:27:00,77.2,66.7,30.14,NE,45,6.9,6.9,70,0.00,SCT,,0.08,WeatherDisplay:10.37,2013-05-26 01:27:00,
2013-05-25 21:32:00,77.2,66.7,30.14,NNE,22,6.9,6.9,70,0.00,SCT,,0.08,WeatherDisplay:10.37,2013-05-26 01:32:00,
2013-05-25 21:38:00,77.2,66.7,30.14,West,270,5.9,5.9,70,0.00,SCT,,0.08,WeatherDisplay:10.37,2013-05-26 01:38:00,
2013-05-25 21:43:00,77.2,66.7,30.14,NE,45,4.6,4.6,70,0.00,SCT,,0.08,WeatherDisplay:10.37,2013-05-26 01:43:00,
2013-05-25 21:49:00,77.2,66.2,30.14,East,90,9.2,9.2,69,0.00,SCT,,0.08,WeatherDisplay:10.37,2013-05-26 01:49:00,
2013-05-25 21:54:00,77.2,66.2,30.15,ENE,68,5.8,5.8,69,0.00,SCT,,0.08,WeatherDisplay:10.37,2013-05-26 01:54:00,
2013-05-25 22:00:00,77.2,66.7,30.15,NE,44,6.0,10.0,70,0.00,SCT,SCT,0.08,WeatherDisplay:10.37,2013-05-26 02:00:00,
2013-05-25 22:05:00,77.0,66.5,30.15,NNE,33,5.0,8.0,70,0.00,SCT,SCT,0.08,WeatherDisplay:10.37,2013-05-26 02:05:00,
2013-05-25 22:10:00,77.0,66.0,30.15,NE,35,5.0,7.0,69,0.00,SCT,SCT,0.08,WeatherDisplay:10.37,2013-05-26 02:10:00,
2013-05-25 22:15:00,76.8,65.4,30.15,NNE,22,6.9,6.9,68,0.00,SCT,,0.08,WeatherDisplay:10.37,2013-05-26 02:15:00,
2013-05-25 22:20:00,76.8,65.0,30.15,ENE,66,5.0,7.0,67,0.00,SCT,SCT,0.08,WeatherDisplay:10.37,2013-05-26 02:20:00,
2013-05-25 22:25:00,76.8,65.4,30.15,NE,50,2.0,6.0,68,0.00,SCT,SCT,0.08,WeatherDisplay:10.37,2013-05-26 02:25:00,
2013-05-25 22:30:00,76.6,65.2,30.15,ENE,57,2.0,6.0,68,0.00,SCT,SCT,0.08,WeatherDisplay:10.37,2013-05-26 02:30:00,
2013-05-25 22:35:00,76.6,65.7,30.15,NE,45,5.9,5.9,69,0.00,SCT,,0.08,WeatherDisplay:10.37,2013-05-26 02:35:00,
2013-05-25 22:40:00,76.6,65.7,30.15,East,90,4.6,6.0,69,0.00,SCT,,0.08,WeatherDisplay:10.37,2013-05-26 02:40:00,
2013-05-25 22:46:00,76.6,65.7,30.15,ESE,112,5.8,5.8,69,0.00,SCT,,0.08,WeatherDisplay:10.37,2013-05-26 02:46:00,
2013-05-25 22:51:00,76.5,65.1,30.16,NE,45,5.8,5.8,68,0.00,SCT,,0.08,WeatherDisplay:10.37,2013-05-26 02:51:00,
2013-05-25 22:57:00,76.5,65.6,30.16,NE,45,5.8,5.8,69,0.00,SCT,,0.08,WeatherDisplay:10.37,2013-05-26 02:57:00,
2013-05-25 23:02:00,76.5,65.6,30.16,East,90,4.6,4.6,69,0.00,SCT,,0.08,WeatherDisplay:10.37,2013-05-26 03:02:00,
2013-05-25 23:08:00,76.5,65.1,30.16,East,90,2.7,2.7,68,0.00,SCT,,0.08,WeatherDisplay:10.37,2013-05-26 03:08:00,
2013-05-25 23:13:00,76.3,65.0,30.16,NE,45,6.4,6.4,68,0.00,SCT,,0.08,WeatherDisplay:10.37,2013-05-26 03:13:00,
2013-05-25 23:19:00,76.3,64.5,30.16,NNE,22,3.5,3.5,67,0.00,SCT,,0.08,WeatherDisplay:10.37,2013-05-26 03:19:00,
2013-05-25 23:24:00,76.3,64.5,30.16,East,90,4.6,4.9,67,0.00,SCT,,0.08,WeatherDisplay:10.37,2013-05-26 03:24:00,
2013-05-25 23:30:00,76.2,64.4,30.16,NE,38,3.0,5.0,67,0.00,SCT,SCT,0.08,WeatherDisplay:10.37,2013-05-26 03:30:00,
2013-05-25 23:35:00,76.1,64.8,30.16,NNE,30,3.0,5.0,68,0.00,SCT,SCT,0.08,WeatherDisplay:10.37,2013-05-26 03:35:00,
2013-05-25 23:40:00,75.9,64.6,30.16,NNW,338,3.5,3.5,68,0.00,SCT,,0.08,WeatherDisplay:10.37,2013-05-26 03:40:00,
2013-05-25 23:45:00,75.9,64.6,30.16,ENE,68,3.8,3.8,68,0.00,SCT,,0.08,WeatherDisplay:10.37,2013-05-26 03:45:00,
2013-05-25 23:51:00,75.7,64.4,30.16,South,180,3.5,3.5,68,0.00,SCT,,0.08,WeatherDisplay:10.37,2013-05-26 03:51:00,
2013-05-25 23:56:00,75.9,64.6,30.16,NNE,22,5.8,5.8,68,0.00,SCT,,0.08,WeatherDisplay:10.37,2013-05-26 03:56:00,